Atlantic Beach, FL

7:41 PM EDT on October 25, 2014 (GMT -0400)
Atlantic Beach, Florida | Change Station
CLOSE
Current Station
Personal Weather Station
Location: Atlantic Beach, FL
Elevation: 12 ft
Nearby Weather Stations

Elev 12 ft 30.33 °N, 81.40 °W | Updated 2 minutes ago

Clear
Clear
62.6 °F
Feels Like 62.6 °F
N
0.0
Wind Variable Wind from East

Today
High -- | Low -- °F
--% Chance of Precip.
Yesterday
High -- | Low -- °F
Precip. -- in
7:34 AM 6:44 PM
Waxing Crescent, 5% visible
Pressure 29.97 in
Visibility 10.0 miles
Clouds Clear
Dew Point 53 °F
Humidity 72%
Rainfall 0.00 in
Snow Depth Not available.
UV 0 out of 12
Pollen 4.70 out of 12
Ozone Good
PM2.5 Good
Flu Activity Local Activity
METAR KNRB 252252Z AUTO 06004KT 10SM CLR 20/10 A2997 RMK AO2 SLP147 T02000100

More Conditions Fewer Conditions

Pressure 29.97 in
Visibility 10.0 miles
Clouds Clear
Dew Point 53 °F
Humidity 72%
Rainfall 0.00 in
Snow Depth Not available.
UV 0 out of 12
Pollen 4.70 out of 12
Ozone Good
PM2.5 Good
Flu Activity Local Activity
METAR KNRB 252252Z AUTO 06004KT 10SM CLR 20/10 A2997 RMK AO2 SLP147 T02000100

More Conditions Fewer Conditions

10-Day Weather Forecast

Almanac

Astronomy

Oct. 25, 2014 Rise Set
Actual Time 7:34 AM EDT 6:44 PM EDT
Civil Twilight 7:10 AM EDT 7:08 PM EDT
Nautical Twilight 6:41 AM EDT 7:36 PM EDT
Astronomical Twilight 6:14 AM EDT 8:04 PM EDT
Moon 9:07 AM EDT 8:12 PM EDT
Length of Visible Light 11h 58m
Length of Day
11h 09m
Tomorrow will be 1m 41s shorter.
Waxing Crescent, 5% of the Moon is Illuminated
Today
Waxing Crescent
Oct 30
First Quarter
Nov 6
Full
Nov 14
Last Quarter
Nov 22
New

Today's Extremes

State Highs State Lows

Community

WunderPhotos

Upload Photos

1,765,034 photos uploaded!

Nearby

Air Quality

  Air Quality AQ Index Pollutant
Yesterday Good
OZONE
Yesterday Good
PM2.5
Current Good
OZONE
Current Good
PM2.5
Saturday Good
OZONE
Saturday Good
PM2.5
Sunday Moderate
OZONE
Sunday Good
PM2.5
Monday Good
OZONE
Monday Good
PM2.5

Snow Depth

Station Depth Elevation
No new snow has been reported.

Earthquake Activity

City Distance Mag. Time & Date
No recent earthquake activity has been reported nearby.
Minimum magnitude displayed is 2.5.

Coastal Water Temperatures

Place Temperature
Mayport (Bar Pilots Dock), FL 75.0 °F
Fernandina Beach, FL 73.0 °F

Nearby Weather Stations